createdAt,value
2019-03-26T00:00:08.520Z,9.08
2019-03-26T00:02:37.656Z,9.09
2019-03-26T00:05:07.011Z,9.04
2019-03-26T00:07:36.139Z,9.04
2019-03-26T00:10:05.938Z,9.00
2019-03-26T00:12:35.103Z,9.00
2019-03-26T00:15:05.507Z,8.98
2019-03-26T00:17:34.708Z,8.92
2019-03-26T00:20:04.924Z,8.94
2019-03-26T00:22:34.123Z,8.96
2019-03-26T00:25:03.577Z,8.96
2019-03-26T00:27:32.784Z,8.92
2019-03-26T00:30:01.907Z,8.86
2019-03-26T00:32:30.948Z,8.82
2019-03-26T00:35:00.362Z,8.81
2019-03-26T00:37:29.599Z,8.77
2019-03-26T00:39:58.679Z,8.58
2019-03-26T00:42:27.909Z,8.55
2019-03-26T00:44:57.041Z,8.54
2019-03-26T00:47:26.236Z,8.49
2019-03-26T00:49:55.405Z,8.49
2019-03-26T00:52:24.459Z,8.31
2019-03-26T00:54:53.547Z,8.26
2019-03-26T00:57:22.637Z,8.26
2019-03-26T00:59:51.832Z,8.21
2019-03-26T01:02:21.032Z,8.23
2019-03-26T01:04:50.124Z,8.17
2019-03-26T01:07:19.387Z,7.92
2019-03-26T01:09:48.519Z,7.92
2019-03-26T01:12:17.701Z,7.69
2019-03-26T01:14:46.905Z,7.64
2019-03-26T01:17:16.035Z,7.57
2019-03-26T01:19:45.139Z,7.53
2019-03-26T01:22:14.404Z,7.55
2019-03-26T01:24:43.524Z,7.48
2019-03-26T01:27:12.778Z,7.43
2019-03-26T01:29:41.845Z,7.41
2019-03-26T01:32:11.057Z,7.46
2019-03-26T01:34:45.942Z,7.44
2019-03-26T01:37:11.076Z,7.47
2019-03-26T01:39:40.273Z,7.42
2019-03-26T01:42:09.501Z,7.45
2019-03-26T01:44:38.653Z,7.46
2019-03-26T01:47:07.874Z,7.46
2019-03-26T01:49:36.966Z,7.42
2019-03-26T01:52:06.169Z,7.40
2019-03-26T01:54:35.303Z,7.42
2019-03-26T01:57:04.553Z,7.41
2019-03-26T01:59:33.756Z,7.47
2019-03-26T02:02:02.820Z,7.49
2019-03-26T02:04:31.966Z,7.48
2019-03-26T02:07:01.115Z,7.47
2019-03-26T02:09:30.338Z,7.41
2019-03-26T02:11:59.561Z,7.38
2019-03-26T02:14:28.703Z,7.36
2019-03-26T02:16:57.984Z,7.37
2019-03-26T02:19:27.145Z,7.35
2019-03-26T02:21:56.283Z,7.28
2019-03-26T02:24:25.356Z,7.28
2019-03-26T02:26:54.588Z,7.33
2019-03-26T02:29:23.784Z,7.30
2019-03-26T02:31:52.853Z,7.32
2019-03-26T02:34:22.122Z,7.20
2019-03-26T02:36:51.320Z,7.20
2019-03-26T02:39:20.476Z,7.18
2019-03-26T02:41:49.620Z,7.20
2019-03-26T02:44:18.877Z,7.21
2019-03-26T02:46:48.052Z,7.24
2019-03-26T02:49:17.233Z,7.24
2019-03-26T02:51:46.431Z,7.20
2019-03-26T02:54:15.483Z,7.28
2019-03-26T02:56:44.720Z,7.26
2019-03-26T02:59:13.910Z,7.23
2019-03-26T03:01:43.107Z,7.25
2019-03-26T03:04:12.349Z,7.28
2019-03-26T03:06:41.541Z,7.31
2019-03-26T03:09:10.701Z,7.36
2019-03-26T03:11:39.931Z,7.38
2019-03-26T03:14:09.142Z,7.36
2019-03-26T03:16:38.272Z,7.39
2019-03-26T03:19:07.500Z,7.45
2019-03-26T03:21:36.560Z,7.54
2019-03-26T03:24:05.755Z,7.54
2019-03-26T03:26:34.917Z,7.64
2019-03-26T03:29:04.333Z,7.74
2019-03-26T03:31:33.403Z,7.84
2019-03-26T03:34:02.696Z,7.89
2019-03-26T03:36:32.430Z,7.95
2019-03-26T03:39:01.637Z,7.98
2019-03-26T03:41:30.859Z,7.98
2019-03-26T03:43:59.944Z,7.99
2019-03-26T03:46:29.153Z,8.00
2019-03-26T03:48:59.242Z,7.99
2019-03-26T03:51:29.946Z,7.95
2019-03-26T03:53:59.742Z,7.90
2019-03-26T03:56:31.599Z,7.91
2019-03-26T03:59:02.479Z,7.90
2019-03-26T04:01:31.612Z,7.85
2019-03-26T04:04:00.711Z,7.84
2019-03-26T04:06:29.902Z,7.82
2019-03-26T04:08:59.068Z,7.82
2019-03-26T04:11:28.433Z,7.73
2019-03-26T04:13:57.610Z,7.77
2019-03-26T04:16:26.807Z,7.71
2019-03-26T04:18:56.043Z,7.72
2019-03-26T04:21:25.212Z,7.71
2019-03-26T04:23:54.457Z,7.69
2019-03-26T04:26:23.615Z,7.64
2019-03-26T04:28:52.748Z,7.65
2019-03-26T04:31:21.800Z,7.61
2019-03-26T04:33:50.994Z,7.56
2019-03-26T04:36:26.147Z,7.58
2019-03-26T04:38:50.941Z,7.55
2019-03-26T04:41:20.179Z,7.57
2019-03-26T04:43:49.387Z,7.58
2019-03-26T04:46:18.533Z,7.65
2019-03-26T04:48:47.740Z,7.65
2019-03-26T04:51:16.910Z,7.57
2019-03-26T04:53:46.165Z,7.57
2019-03-26T04:56:15.380Z,7.59
2019-03-26T04:58:44.503Z,7.60
2019-03-26T05:01:13.621Z,7.60
2019-03-26T05:03:42.791Z,7.63
2019-03-26T05:06:11.980Z,7.61
2019-03-26T05:08:41.105Z,7.60
2019-03-26T05:11:10.343Z,7.62
2019-03-26T05:13:39.533Z,7.63
2019-03-26T05:16:08.663Z,7.60
2019-03-26T05:18:37.826Z,7.62
2019-03-26T05:21:07.031Z,7.61
2019-03-26T05:23:36.165Z,7.58
2019-03-26T05:26:05.483Z,7.60
2019-03-26T05:28:34.551Z,7.61
2019-03-26T05:31:03.679Z,7.59
2019-03-26T05:33:32.765Z,7.56
2019-03-26T05:36:01.888Z,7.61
2019-03-26T05:38:31.009Z,7.59
2019-03-26T05:41:00.168Z,7.61
2019-03-26T05:43:29.435Z,7.60
2019-03-26T05:45:58.632Z,7.62
2019-03-26T05:48:27.794Z,7.61
2019-03-26T05:50:56.838Z,7.62
2019-03-26T05:53:25.893Z,7.71
2019-03-26T05:55:54.987Z,7.74
2019-03-26T05:58:24.030Z,7.82
2019-03-26T06:00:53.236Z,7.99
2019-03-26T06:03:22.426Z,7.99
2019-03-26T06:05:51.561Z,7.97
2019-03-26T06:08:20.687Z,8.02
2019-03-26T06:10:49.825Z,8.03
2019-03-26T06:13:19.075Z,8.03
2019-03-26T06:15:48.213Z,8.11
2019-03-26T06:18:17.371Z,8.28
2019-03-26T06:20:46.576Z,8.31
2019-03-26T06:23:15.782Z,8.41
2019-03-26T06:25:44.866Z,8.41
2019-03-26T06:28:14.052Z,8.42
2019-03-26T06:30:43.230Z,8.46
2019-03-26T06:33:12.490Z,8.60
2019-03-26T06:35:41.680Z,8.78
2019-03-26T06:38:10.805Z,8.92
2019-03-26T06:40:40.059Z,9.24
2019-03-26T06:43:09.258Z,9.24
2019-03-26T06:45:38.453Z,9.34
2019-03-26T06:48:07.692Z,9.34
2019-03-26T06:50:36.868Z,9.28
2019-03-26T06:53:06.070Z,9.20
2019-03-26T06:55:35.337Z,9.11
2019-03-26T06:58:04.479Z,8.92
2019-03-26T07:00:34.872Z,8.83
2019-03-26T07:03:06.311Z,8.78
2019-03-26T07:05:35.516Z,8.74
2019-03-26T07:08:04.993Z,8.87
2019-03-26T07:10:34.228Z,8.88
2019-03-26T07:13:03.349Z,8.82
2019-03-26T07:15:32.545Z,9.03
2019-03-26T07:18:01.717Z,9.06
2019-03-26T07:20:30.911Z,9.15
2019-03-26T07:23:00.149Z,9.33
2019-03-26T07:25:29.390Z,9.33
2019-03-26T07:27:58.699Z,9.53
2019-03-26T07:30:41.740Z,9.80
2019-03-26T07:33:11.243Z,10.05
2019-03-26T07:35:41.164Z,10.13
2019-03-26T07:38:10.399Z,10.27
2019-03-26T07:40:39.601Z,10.41
2019-03-26T07:43:08.891Z,10.30
2019-03-26T07:45:38.222Z,10.62
2019-03-26T07:48:07.423Z,11.19
2019-03-26T07:50:36.630Z,11.08
2019-03-26T07:53:05.878Z,11.19
2019-03-26T07:55:35.081Z,11.78
2019-03-26T07:58:04.286Z,11.82
2019-03-26T08:00:35.320Z,11.78
2019-03-26T08:03:05.144Z,12.37
2019-03-26T08:05:34.338Z,12.53
2019-03-26T08:08:03.585Z,12.84
2019-03-26T08:10:32.784Z,13.36
2019-03-26T08:13:02.006Z,13.65
2019-03-26T08:15:31.280Z,13.73
2019-03-26T08:18:00.407Z,13.87
2019-03-26T08:20:29.600Z,13.89
2019-03-26T08:22:58.840Z,14.17
2019-03-26T08:25:28.183Z,14.32
2019-03-26T08:27:57.344Z,14.38
2019-03-26T08:30:26.490Z,14.23
2019-03-26T08:32:55.643Z,13.94
2019-03-26T08:35:24.845Z,13.09
2019-03-26T08:37:54.098Z,13.02
2019-03-26T08:40:23.610Z,13.06
2019-03-26T08:42:53.080Z,13.24
2019-03-26T08:45:22.424Z,13.14
2019-03-26T08:47:51.639Z,13.02
2019-03-26T08:50:20.855Z,12.91
2019-03-26T08:52:50.101Z,12.80
2019-03-26T08:55:19.389Z,13.02
2019-03-26T08:57:48.599Z,12.69
2019-03-26T09:00:18.142Z,12.23
2019-03-26T09:02:47.349Z,11.84
2019-03-26T09:05:16.667Z,12.18
2019-03-26T09:07:45.922Z,12.35
2019-03-26T09:10:15.559Z,12.62
2019-03-26T09:12:44.784Z,13.08
2019-03-26T09:15:14.793Z,12.74
2019-03-26T09:17:44.859Z,12.49
2019-03-26T09:20:15.185Z,12.81
2019-03-26T09:22:44.364Z,12.92
2019-03-26T09:25:14.065Z,13.12
2019-03-26T09:27:43.364Z,12.99
2019-03-26T09:30:13.207Z,12.90
2019-03-26T09:32:43.855Z,13.02
2019-03-26T09:35:13.555Z,13.51
2019-03-26T09:37:42.734Z,14.15
2019-03-26T09:40:12.474Z,14.06
2019-03-26T09:42:41.853Z,14.59
2019-03-26T09:45:11.899Z,14.51
2019-03-26T09:47:41.158Z,14.17
2019-03-26T09:50:11.868Z,14.22
2019-03-26T09:52:41.145Z,14.28
2019-03-26T09:55:10.847Z,14.96
2019-03-26T09:57:40.045Z,15.20
2019-03-26T10:00:10.996Z,15.49
2019-03-26T10:02:43.087Z,15.61
2019-03-26T10:05:11.440Z,14.86
2019-03-26T10:07:40.812Z,14.97
2019-03-26T10:10:10.971Z,14.99
2019-03-26T10:12:40.166Z,15.04
2019-03-26T10:15:10.042Z,15.28
2019-03-26T10:17:39.302Z,15.03
2019-03-26T10:20:08.819Z,15.32
2019-03-26T10:22:40.984Z,15.28
2019-03-26T10:25:11.516Z,15.04
2019-03-26T10:27:41.054Z,14.75
2019-03-26T10:30:13.049Z,14.77
2019-03-26T10:32:42.314Z,14.72
2019-03-26T10:35:12.052Z,14.80
2019-03-26T10:37:41.330Z,14.47
2019-03-26T10:40:12.736Z,14.51
2019-03-26T10:42:41.990Z,14.54
2019-03-26T10:45:11.722Z,14.57
2019-03-26T10:47:40.929Z,14.52
2019-03-26T10:50:10.253Z,14.13
2019-03-26T10:52:39.575Z,14.61
2019-03-26T10:55:08.986Z,14.70
2019-03-26T10:57:38.219Z,14.75
2019-03-26T11:00:08.148Z,15.18
2019-03-26T11:02:37.380Z,15.50
2019-03-26T11:05:07.593Z,15.95
2019-03-26T11:07:36.902Z,16.25
2019-03-26T11:10:07.953Z,16.50
2019-03-26T11:12:37.219Z,16.76
2019-03-26T11:15:07.678Z,16.84
2019-03-26T11:17:37.021Z,15.57
2019-03-26T11:20:08.149Z,15.74
2019-03-26T11:22:37.385Z,15.92
2019-03-26T11:25:11.859Z,16.52
2019-03-26T11:27:39.680Z,16.92
2019-03-26T11:30:09.717Z,17.17
2019-03-26T11:32:38.940Z,16.97
2019-03-26T11:35:09.938Z,16.81
2019-03-26T11:37:39.894Z,16.67
2019-03-26T11:40:10.019Z,16.71
2019-03-26T11:42:39.238Z,16.39
2019-03-26T11:45:10.752Z,16.82
2019-03-26T11:47:40.769Z,16.40
2019-03-26T11:50:10.756Z,16.15
2019-03-26T11:52:40.629Z,16.89
2019-03-26T11:55:11.332Z,17.29
2019-03-26T11:57:40.546Z,17.45
2019-03-26T12:00:12.917Z,16.95
2019-03-26T12:02:42.063Z,16.69
2019-03-26T12:05:11.426Z,17.12
2019-03-26T12:07:42.951Z,17.23
2019-03-26T12:10:11.806Z,17.53
2019-03-26T12:12:41.018Z,16.71
2019-03-26T12:15:10.619Z,17.46
2019-03-26T12:17:39.831Z,17.95
2019-03-26T12:20:09.893Z,16.73
2019-03-26T12:22:39.017Z,17.28
2019-03-26T12:25:08.778Z,17.12
2019-03-26T12:27:37.992Z,17.34
2019-03-26T12:30:08.587Z,17.03
2019-03-26T12:32:40.739Z,17.36
2019-03-26T12:35:11.396Z,16.56
2019-03-26T12:37:40.543Z,16.99
2019-03-26T12:40:10.062Z,17.49
2019-03-26T12:42:39.457Z,17.96
2019-03-26T12:45:09.100Z,17.52
2019-03-26T12:47:38.223Z,18.00
2019-03-26T12:50:08.659Z,17.64
2019-03-26T12:52:37.812Z,17.60
2019-03-26T12:55:07.291Z,18.03
2019-03-26T12:57:36.588Z,17.61
2019-03-26T13:00:07.514Z,16.05
2019-03-26T13:02:36.720Z,15.91
2019-03-26T13:05:09.159Z,16.01
2019-03-26T13:07:38.371Z,16.32
2019-03-26T13:10:13.840Z,16.42
2019-03-26T13:12:40.685Z,16.27
2019-03-26T13:15:09.894Z,15.96
2019-03-26T13:17:39.101Z,15.30
2019-03-26T13:20:08.637Z,15.83
2019-03-26T13:22:37.964Z,16.82
2019-03-26T13:25:08.866Z,16.82
2019-03-26T13:27:38.023Z,17.31
2019-03-26T13:30:09.523Z,16.96
2019-03-26T13:32:38.737Z,16.96
2019-03-26T13:35:08.779Z,17.09
2019-03-26T13:37:38.001Z,17.56
2019-03-26T13:40:07.511Z,17.02
2019-03-26T13:42:36.741Z,17.44
2019-03-26T13:45:08.241Z,16.92
2019-03-26T13:47:37.537Z,16.78
2019-03-26T13:50:08.420Z,17.11
2019-03-26T13:52:37.830Z,15.56
2019-03-26T13:55:08.930Z,15.96
2019-03-26T13:57:38.108Z,15.97
2019-03-26T14:00:08.982Z,15.08
2019-03-26T14:02:38.197Z,15.88
2019-03-26T14:05:12.995Z,16.04
2019-03-26T14:07:42.090Z,16.64
2019-03-26T14:10:11.495Z,16.77
2019-03-26T14:12:40.595Z,17.97
2019-03-26T14:15:10.423Z,18.04
2019-03-26T14:17:39.712Z,16.75
2019-03-26T14:20:09.392Z,16.12
2019-03-26T14:22:38.537Z,16.33
2019-03-26T14:25:08.147Z,15.79
2019-03-26T14:27:37.409Z,15.60
2019-03-26T14:30:08.908Z,15.59
2019-03-26T14:32:38.049Z,15.40
2019-03-26T14:35:07.882Z,14.90
2019-03-26T14:37:50.286Z,14.89
2019-03-26T14:40:08.352Z,14.86
2019-03-26T14:42:37.531Z,14.97
2019-03-26T14:45:08.086Z,14.54
2019-03-26T14:47:37.295Z,14.53
2019-03-26T14:50:07.937Z,14.37
2019-03-26T14:52:37.006Z,14.16
2019-03-26T14:55:08.206Z,14.11
2019-03-26T14:57:37.452Z,13.82
2019-03-26T15:00:09.985Z,14.57
2019-03-26T15:02:39.288Z,14.97
2019-03-26T15:05:08.795Z,15.47
2019-03-26T15:07:37.849Z,15.41
2019-03-26T15:10:07.851Z,15.52
2019-03-26T15:12:37.022Z,16.18
2019-03-26T15:15:06.712Z,17.21
2019-03-26T15:17:35.924Z,17.54
2019-03-26T15:20:07.118Z,17.64
2019-03-26T15:22:36.266Z,17.42
2019-03-26T15:25:06.776Z,17.26
2019-03-26T15:27:36.024Z,17.68
2019-03-26T15:30:09.458Z,16.78
2019-03-26T15:32:38.662Z,17.55
2019-03-26T15:35:08.508Z,17.99
2019-03-26T15:37:37.708Z,17.32
2019-03-26T15:40:08.783Z,17.93
2019-03-26T15:42:38.217Z,18.00
2019-03-26T15:45:09.285Z,17.94
2019-03-26T15:47:38.500Z,17.97
2019-03-26T15:50:08.553Z,17.61
2019-03-26T15:52:37.917Z,18.03
2019-03-26T15:55:09.023Z,17.57
2019-03-26T15:57:38.265Z,16.27
2019-03-26T16:00:09.536Z,15.68
2019-03-26T16:02:38.694Z,15.05
2019-03-26T16:05:08.502Z,14.77
2019-03-26T16:07:37.651Z,14.43
2019-03-26T16:10:08.060Z,14.18
2019-03-26T16:12:41.348Z,14.08
2019-03-26T16:15:08.264Z,13.88
2019-03-26T16:17:37.750Z,13.88
2019-03-26T16:20:08.563Z,14.32
2019-03-26T16:22:37.785Z,14.16
2019-03-26T16:25:07.732Z,14.21
2019-03-26T16:27:36.914Z,13.74
2019-03-26T16:30:07.818Z,13.43
2019-03-26T16:32:37.071Z,13.23
2019-03-26T16:35:06.783Z,13.08
2019-03-26T16:37:36.004Z,12.97
2019-03-26T16:40:06.978Z,12.90
2019-03-26T16:42:36.207Z,12.81
2019-03-26T16:45:07.108Z,12.76
2019-03-26T16:47:36.277Z,12.67
2019-03-26T16:50:08.348Z,12.65
2019-03-26T16:52:37.727Z,12.56
2019-03-26T16:55:07.395Z,12.49
2019-03-26T16:57:36.686Z,12.40
2019-03-26T17:00:08.483Z,12.30
2019-03-26T17:02:37.727Z,12.23
2019-03-26T17:05:08.247Z,12.17
2019-03-26T17:07:37.446Z,12.07
2019-03-26T17:10:08.267Z,12.03
2019-03-26T17:12:38.164Z,12.00
2019-03-26T17:15:08.467Z,11.95
2019-03-26T17:17:37.813Z,11.89
2019-03-26T17:20:07.741Z,11.86
2019-03-26T17:22:36.946Z,11.82
2019-03-26T17:25:09.485Z,11.75
2019-03-26T17:27:38.689Z,11.71
2019-03-26T17:30:08.605Z,11.66
2019-03-26T17:32:37.859Z,11.62
2019-03-26T17:35:07.834Z,11.59
2019-03-26T17:37:37.222Z,11.56
2019-03-26T17:40:06.583Z,11.52
2019-03-26T17:42:35.801Z,11.48
2019-03-26T17:45:06.406Z,11.46
2019-03-26T17:47:35.661Z,11.42
2019-03-26T17:50:07.284Z,11.40
2019-03-26T17:52:36.454Z,11.38
2019-03-26T17:55:08.001Z,11.36
2019-03-26T17:57:37.253Z,11.35
2019-03-26T18:00:12.634Z,11.32
2019-03-26T18:02:41.896Z,11.33
2019-03-26T18:05:28.615Z,11.30
2019-03-26T18:07:58.066Z,11.30
2019-03-26T18:10:27.276Z,11.26
2019-03-26T18:12:56.489Z,11.24
2019-03-26T18:15:25.750Z,11.23
2019-03-26T18:17:54.896Z,11.22
2019-03-26T18:20:32.577Z,11.23
2019-03-26T18:22:54.919Z,11.22
2019-03-26T18:25:24.145Z,11.25
2019-03-26T18:27:53.386Z,11.25
2019-03-26T18:30:22.955Z,11.20
2019-03-26T18:32:52.187Z,11.16
2019-03-26T18:35:21.417Z,11.16
2019-03-26T18:37:50.687Z,11.15
2019-03-26T18:40:19.847Z,11.11
2019-03-26T18:42:49.058Z,11.10
2019-03-26T18:45:19.767Z,11.12
2019-03-26T18:47:48.985Z,11.11
2019-03-26T18:50:18.522Z,11.13
2019-03-26T18:52:47.677Z,11.11
2019-03-26T18:55:17.092Z,11.13
2019-03-26T18:57:46.262Z,11.14
2019-03-26T19:00:21.315Z,11.14
2019-03-26T19:02:50.526Z,11.16
2019-03-26T19:05:19.693Z,11.16
2019-03-26T19:07:48.870Z,11.15
2019-03-26T19:10:26.438Z,11.14
2019-03-26T19:12:57.272Z,11.13
2019-03-26T19:15:26.749Z,11.14
2019-03-26T19:17:55.970Z,11.14
2019-03-26T19:20:25.375Z,11.13
2019-03-26T19:22:54.531Z,11.15
2019-03-26T19:25:23.764Z,11.15
2019-03-26T19:27:52.975Z,11.16
2019-03-26T19:30:22.289Z,11.17
2019-03-26T19:32:51.509Z,11.17
2019-03-26T19:35:20.751Z,11.18
2019-03-26T19:37:49.844Z,11.17
2019-03-26T19:40:19.199Z,11.14
2019-03-26T19:42:48.451Z,11.15
2019-03-26T19:45:17.870Z,11.13
2019-03-26T19:47:47.080Z,11.12
2019-03-26T19:50:17.428Z,11.06
2019-03-26T19:52:46.585Z,11.04
2019-03-26T19:55:15.794Z,10.98
2019-03-26T19:57:45.182Z,10.95
2019-03-26T20:00:18.118Z,10.91
2019-03-26T20:02:47.331Z,10.86
2019-03-26T20:05:16.623Z,10.79
2019-03-26T20:07:45.769Z,10.75
2019-03-26T20:10:15.568Z,10.69
2019-03-26T20:12:44.803Z,10.66
2019-03-26T20:15:14.894Z,10.61
2019-03-26T20:17:44.227Z,10.61
2019-03-26T20:20:15.323Z,10.46
2019-03-26T20:22:44.466Z,10.43
2019-03-26T20:25:14.441Z,10.41
2019-03-26T20:27:43.708Z,10.42
2019-03-26T20:30:13.348Z,10.36
2019-03-26T20:32:42.562Z,10.34
2019-03-26T20:35:12.313Z,10.33
2019-03-26T20:37:41.468Z,10.32
2019-03-26T20:40:11.668Z,10.28
2019-03-26T20:42:40.828Z,10.29
2019-03-26T20:45:14.387Z,10.18
2019-03-26T20:47:43.183Z,10.16
2019-03-26T20:50:13.020Z,10.11
2019-03-26T20:52:42.250Z,10.04
2019-03-26T20:55:12.859Z,10.01
2019-03-26T20:57:42.102Z,9.95
2019-03-26T21:00:13.272Z,9.92
2019-03-26T21:02:42.605Z,9.82
2019-03-26T21:05:12.273Z,9.78
2019-03-26T21:07:41.409Z,9.74
2019-03-26T21:10:11.190Z,9.73
2019-03-26T21:12:40.464Z,9.72
2019-03-26T21:15:10.522Z,9.68
2019-03-26T21:17:39.881Z,9.61
2019-03-26T21:20:10.514Z,9.57
2019-03-26T21:22:39.863Z,9.56
2019-03-26T21:25:09.657Z,9.52
2019-03-26T21:27:38.917Z,9.50
2019-03-26T21:30:15.385Z,9.44
2019-03-26T21:32:41.684Z,9.40
2019-03-26T21:35:11.748Z,9.35
2019-03-26T21:37:40.957Z,9.32
2019-03-26T21:40:11.152Z,9.27
2019-03-26T21:42:40.509Z,9.26
2019-03-26T21:45:12.081Z,9.26
2019-03-26T21:47:41.274Z,9.23
2019-03-26T21:50:10.629Z,9.16
2019-03-26T21:52:40.055Z,9.13
2019-03-26T21:55:13.061Z,9.14
2019-03-26T21:57:40.864Z,9.11
2019-03-26T22:00:11.033Z,9.09
2019-03-26T22:02:40.232Z,9.06
2019-03-26T22:05:11.389Z,9.02
2019-03-26T22:07:40.606Z,8.99
2019-03-26T22:10:10.379Z,8.90
2019-03-26T22:12:39.612Z,8.90
2019-03-26T22:15:10.099Z,8.89
2019-03-26T22:17:39.300Z,8.77
2019-03-26T22:20:09.432Z,8.74
2019-03-26T22:22:38.565Z,8.68
2019-03-26T22:25:08.868Z,8.63
2019-03-26T22:27:38.048Z,8.55
2019-03-26T22:30:12.949Z,8.43
2019-03-26T22:32:42.241Z,8.43
2019-03-26T22:35:11.980Z,8.33
2019-03-26T22:37:41.202Z,8.28
2019-03-26T22:40:10.799Z,8.20
2019-03-26T22:42:39.975Z,8.20
2019-03-26T22:45:10.194Z,8.14
2019-03-26T22:47:42.403Z,8.08
2019-03-26T22:50:12.567Z,8.02
2019-03-26T22:52:41.784Z,7.97
2019-03-26T22:55:11.892Z,7.92
2019-03-26T22:57:41.158Z,7.90
2019-03-26T23:00:18.553Z,7.86
2019-03-26T23:02:47.788Z,7.82
2019-03-26T23:05:17.519Z,7.77
2019-03-26T23:07:46.715Z,7.71
2019-03-26T23:10:17.863Z,7.62
2019-03-26T23:12:47.278Z,7.63
2019-03-26T23:15:23.061Z,7.47
2019-03-26T23:17:52.454Z,7.47
2019-03-26T23:20:21.722Z,7.47
2019-03-26T23:22:50.982Z,7.45
2019-03-26T23:25:20.311Z,7.40
2019-03-26T23:27:49.674Z,7.37
2019-03-26T23:30:19.284Z,7.33
2019-03-26T23:32:48.524Z,7.37
2019-03-26T23:35:17.743Z,7.31
2019-03-26T23:37:46.905Z,7.29
2019-03-26T23:40:16.385Z,7.27
2019-03-26T23:42:45.502Z,7.24
2019-03-26T23:45:15.112Z,7.19
2019-03-26T23:47:44.280Z,7.14
2019-03-26T23:50:13.991Z,7.12
2019-03-26T23:52:43.185Z,7.09
2019-03-26T23:55:12.926Z,7.06
2019-03-26T23:57:42.076Z,7.08
